Time;durP1;ratioP1;P1;durP2;ratioP2;P2;SDS_P1;SDS_P2;PMS_P1;PMS_P2;Temp;Humidity;BMP_temperature;BMP_pressure;BME280_temperature;BME280_humidity;BME280_pressure;Samples;Min_cycle;Max_cycle;Signal;HPM_P1;HPM_P2
2022/05/09 00:00:51;;;;;;;5.20;4.80;;;;;;;7.07;100.00;93686.91;2098429;28;20027;-79
2022/05/09 00:01:52;;;;;;;5.35;4.85;;;;;;;7.16;100.00;93689.19;2089567;28;20441;-80
2022/05/09 00:02:54;;;;;;;6.00;5.40;;;;;;;7.02;100.00;93689.94;2098380;28;20032;-79
2022/05/09 00:03:55;;;;;;;5.53;5.03;;;;;;;7.15;100.00;93681.56;2098466;28;20583;-82
2022/05/09 00:04:56;;;;;;;6.03;5.43;;;;;;;7.09;100.00;93686.53;2098593;28;20032;-83
2022/05/09 00:05:57;;;;;;;5.60;5.20;;;;;;;7.03;100.00;93686.16;2109730;28;20026;-80
2022/05/09 00:06:58;;;;;;;5.80;5.20;;;;;;;7.06;100.00;93682.72;2106729;28;20556;-82
2022/05/09 00:07:59;;;;;;;6.97;4.57;;;;;;;7.33;100.00;93687.66;2090357;28;20032;-82
2022/05/09 00:09:00;;;;;;;5.55;5.05;;;;;;;7.18;100.00;93681.59;2105428;28;20016;-82
2022/05/09 00:10:01;;;;;;;5.88;5.38;;;;;;;7.08;100.00;93682.34;2098419;28;20016;-81
2022/05/09 00:11:02;;;;;;;6.65;5.32;;;;;;;7.03;100.00;93682.72;2098519;28;20025;-82
2022/05/09 00:12:03;;;;;;;5.78;5.28;;;;;;;7.00;100.00;93686.88;2102001;28;20020;-82
2022/05/09 00:13:05;;;;;;;6.35;5.22;;;;;;;6.93;100.00;93680.81;2106663;28;20048;-82
2022/05/09 00:14:07;;;;;;;6.68;5.38;;;;;;;6.96;100.00;93683.47;2114094;28;20472;-81
2022/05/09 00:15:08;;;;;;;6.10;5.60;;;;;;;6.86;100.00;93684.22;2115391;27;20027;-82
2022/05/09 00:16:10;;;;;;;5.70;5.20;;;;;;;6.95;100.00;93679.28;2115426;27;20119;-82
2022/05/09 00:17:11;;;;;;;5.70;5.30;;;;;;;6.83;100.00;93679.66;2106912;28;20020;-82
2022/05/09 00:18:20;;;;;;;5.60;5.10;;;;;;;6.88;100.00;93684.59;2098556;28;20020;-81
2022/05/09 00:19:21;;;;;;;5.68;4.85;;;;;;;6.90;100.00;93682.34;2100606;28;20421;-82
2022/05/09 00:20:22;;;;;;;5.40;4.72;;;;;;;6.93;100.00;93684.22;2107063;28;20092;-82
2022/05/09 00:21:23;;;;;;;5.72;5.32;;;;;;;6.94;100.00;93679.69;2106537;28;20042;-81
2022/05/09 00:22:24;;;;;;;6.38;5.70;;;;;;;6.90;100.00;93681.56;2106785;27;20489;-83
2022/05/09 00:23:25;;;;;;;7.60;5.88;;;;;;;6.84;100.00;93683.81;2115053;28;20031;-81
2022/05/09 00:24:26;;;;;;;6.18;5.47;;;;;;;6.95;100.00;93681.19;2115158;27;20026;-81
2022/05/09 00:25:27;;;;;;;6.15;5.05;;;;;;;6.90;100.00;93695.63;2121927;27;20334;-81
2022/05/09 00:26:31;;;;;;;6.25;5.63;;;;;;;6.85;100.00;93689.91;2114639;28;20062;-83
2022/05/09 00:27:32;;;;;;;6.28;5.43;;;;;;;6.84;100.00;93683.81;2106550;28;20566;-82
2022/05/09 00:28:33;;;;;;;5.47;4.97;;;;;;;6.77;100.00;93689.16;2098430;28;20080;-82
2022/05/09 00:29:34;;;;;;;5.38;4.88;;;;;;;6.77;100.00;93687.25;2103031;28;20467;-82
2022/05/09 00:30:35;;;;;;;7.13;5.50;;;;;;;6.79;100.00;93687.63;2098496;28;20109;-82
2022/05/09 00:31:36;;;;;;;5.78;5.28;;;;;;;6.81;100.00;93685.34;2106607;28;20056;-83
2022/05/09 00:32:37;;;;;;;6.40;5.60;;;;;;;6.73;100.00;93685.72;2115051;28;20019;-83
2022/05/09 00:33:39;;;;;;;6.43;5.82;;;;;;;6.60;100.00;93690.63;2106809;28;20027;-82
2022/05/09 00:34:40;;;;;;;5.72;5.25;;;;;;;6.62;100.00;93680.38;2090448;28;20029;-83
2022/05/09 00:35:44;;;;;;;5.68;5.22;;;;;;;6.78;100.00;93688.00;2098371;28;20032;-82
2022/05/09 00:36:48;;;;;;;6.32;5.55;;;;;;;6.71;100.00;93680.00;2104088;28;20020;-81
2022/05/09 00:37:49;;;;;;;6.35;5.80;;;;;;;6.62;100.00;93683.03;2106546;28;20032;-81
2022/05/09 00:38:50;;;;;;;6.45;5.82;;;;;;;6.60;100.00;93677.34;2098175;28;20362;-82
2022/05/09 00:39:51;;;;;;;6.13;5.63;;;;;;;6.65;100.00;93676.97;2093284;28;20036;-82
2022/05/09 00:42:14;;;;;;;6.95;5.68;;;;;;;6.64;100.00;93675.44;2108087;27;20020;-81
2022/05/09 00:43:37;;;;;;;5.85;5.25;;;;;;;6.63;100.00;93673.94;2107868;27;20052;-81
2022/05/09 00:44:38;;;;;;;7.97;5.40;;;;;;;6.53;100.00;93670.09;2109637;28;20023;-82
2022/05/09 00:45:39;;;;;;;5.97;5.47;;;;;;;6.73;100.00;93670.53;2098536;28;20021;-83
2022/05/09 00:46:44;;;;;;;6.53;5.93;;;;;;;7.01;100.00;93675.13;2106486;28;20024;-82
2022/05/09 00:47:46;;;;;;;6.35;5.78;;;;;;;6.78;100.00;93672.06;2115028;28;20503;-82
2022/05/09 00:48:46;;;;;;;6.03;5.43;;;;;;;6.78;100.00;93664.84;2120758;27;20023;-82
2022/05/09 00:49:51;;;;;;;6.45;5.85;;;;;;;6.71;100.00;93666.72;2120347;27;20022;-81
2022/05/09 00:50:52;;;;;;;8.10;5.95;;;;;;;6.69;100.00;93669.75;2106643;28;20514;-83
2022/05/09 00:52:16;;;;;;;7.60;6.20;;;;;;;6.65;100.00;93670.91;2106889;28;20051;-81
2022/05/09 00:53:18;;;;;;;7.05;6.35;;;;;;;6.68;100.00;93670.16;2106419;28;20084;-81
2022/05/09 00:54:19;;;;;;;6.15;5.63;;;;;;;6.70;100.00;93667.88;2100522;28;20055;-83
2022/05/09 00:55:35;;;;;;;6.18;5.68;;;;;;;6.65;100.00;93670.91;2108700;28;20038;-81
2022/05/09 00:56:49;;;;;;;6.68;5.65;;;;;;;6.68;100.00;93667.50;2114978;28;20027;-82
2022/05/09 00:58:07;;;;;;;7.10;6.47;;;;;;;6.75;100.00;93665.59;2108260;28;20024;-81
2022/05/09 00:59:13;;;;;;;7.15;6.45;;;;;;;6.83;100.00;93669.03;2100408;28;20035;-81
2022/05/09 01:00:17;;;;;;;6.88;6.22;;;;;;;6.81;100.00;93666.00;2095747;28;20027;-81
2022/05/09 01:01:20;;;;;;;7.55;6.80;;;;;;;6.76;100.00;93672.44;2090566;28;20040;-82
2022/05/09 01:02:21;;;;;;;7.40;6.70;;;;;;;6.73;100.00;93669.78;2097919;28;20024;-82
2022/05/09 01:03:35;;;;;;;6.90;6.30;;;;;;;6.88;100.00;93671.31;2106543;28;20016;-81
2022/05/09 01:04:50;;;;;;;6.65;6.03;;;;;;;6.97;100.00;93678.91;2104096;28;20124;-82
2022/05/09 01:05:51;;;;;;;10.55;6.35;;;;;;;7.06;100.00;93679.28;2106133;28;20134;-82
2022/05/09 01:06:53;;;;;;;6.57;6.07;;;;;;;6.91;100.00;93670.56;2089765;28;20017;-82
2022/05/09 01:07:55;;;;;;;6.75;5.90;;;;;;;6.84;100.00;93675.84;2107051;27;20020;-82
2022/05/09 01:08:56;;;;;;;7.03;6.28;;;;;;;6.88;100.00;93684.59;2114660;28;20023;-81
2022/05/09 01:09:58;;;;;;;6.47;5.88;;;;;;;6.87;100.00;93672.44;2106527;28;20075;-81
2022/05/09 01:11:03;;;;;;;7.75;6.30;;;;;;;6.86;100.00;93675.50;2098002;28;20491;-82
2022/05/09 01:12:04;;;;;;;6.88;6.25;;;;;;;7.05;100.00;93677.78;2094507;28;20411;-82
2022/05/09 01:13:09;;;;;;;6.25;5.68;;;;;;;7.04;100.00;93674.38;2106467;28;20492;-82
2022/05/09 01:14:24;;;;;;;6.93;6.30;;;;;;;7.13;100.00;93675.91;2106011;28;20021;-83
2022/05/09 01:15:26;;;;;;;6.57;5.97;;;;;;;7.02;100.00;93673.22;2109947;28;20036;-83
2022/05/09 01:16:27;;;;;;;7.00;6.30;;;;;;;6.94;100.00;93683.09;2114611;28;20027;-82
2022/05/09 01:17:28;;;;;;;6.78;6.18;;;;;;;6.94;100.00;93671.72;2106260;28;20388;-82
2022/05/09 01:18:29;;;;;;;6.80;6.20;;;;;;;6.99;100.00;93677.41;2097941;28;20892;-81
2022/05/09 01:19:38;;;;;;;7.05;6.45;;;;;;;6.94;100.00;93671.72;2098087;28;20033;-82
2022/05/09 01:20:39;;;;;;;9.88;6.60;;;;;;;6.86;100.00;93668.28;2107318;28;20136;-81
2022/05/09 01:21:40;;;;;;;7.88;6.80;;;;;;;7.01;100.00;93669.78;2097743;28;20071;-81
2022/05/09 01:22:42;;;;;;;7.18;6.53;;;;;;;6.90;100.00;93669.03;2099055;28;20024;-82
2022/05/09 01:23:43;;;;;;;7.05;6.35;;;;;;;6.85;100.00;93664.09;2106237;28;20032;-82
2022/05/09 01:24:44;;;;;;;7.30;6.60;;;;;;;6.92;100.00;93672.06;2089840;28;20751;-82
2022/05/09 01:25:45;;;;;;;7.40;6.68;;;;;;;6.97;100.00;93670.94;2094691;28;20024;-82
2022/05/09 01:26:47;;;;;;;7.63;6.35;;;;;;;6.93;100.00;93668.28;2101570;28;20064;-82
2022/05/09 01:27:49;;;;;;;7.00;6.45;;;;;;;6.90;100.00;93676.25;2114927;28;20028;-81
2022/05/09 01:28:50;;;;;;;7.18;6.53;;;;;;;6.81;100.00;93669.41;2108217;28;20397;-82
2022/05/09 01:29:59;;;;;;;6.88;6.28;;;;;;;6.78;100.00;93669.41;2106377;28;20060;-81
2022/05/09 01:31:05;;;;;;;6.65;6.15;;;;;;;6.70;100.00;93668.63;2114716;28;20427;-82
2022/05/09 01:32:10;;;;;;;7.65;6.90;;;;;;;6.66;100.00;93678.47;2106389;28;20093;-82
2022/05/09 01:33:23;;;;;;;7.18;6.47;;;;;;;6.70;100.00;93668.63;2107156;28;20024;-83
2022/05/09 01:34:26;;;;;;;7.28;6.65;;;;;;;6.68;100.00;93670.16;2099538;28;20028;-82
2022/05/09 01:35:47;;;;;;;9.45;5.88;;;;;;;6.59;100.00;93672.41;2092773;28;20381;-82
2022/05/09 01:36:52;;;;;;;6.78;6.03;;;;;;;6.56;100.00;93668.59;2095594;28;20036;-82
2022/05/09 01:38:04;;;;;;;6.68;6.00;;;;;;;6.59;100.00;93672.41;2107200;28;20020;-82
2022/05/09 01:39:10;;;;;;;7.28;6.28;;;;;;;6.60;100.00;93669.38;2107743;28;20074;-82
2022/05/09 01:40:15;;;;;;;7.22;6.63;;;;;;;6.57;100.00;93667.47;2099470;28;20028;-81
2022/05/09 01:41:17;;;;;;;6.70;6.10;;;;;;;6.60;100.00;93674.69;2106142;28;20034;-81
2022/05/09 01:42:18;;;;;;;8.65;6.68;;;;;;;6.58;100.00;93668.97;2094587;28;20522;-81
2022/05/09 01:43:43;;;;;;;7.22;6.47;;;;;;;6.57;100.00;93670.88;2097929;28;20406;-81
2022/05/09 01:44:44;;;;;;;6.68;6.07;;;;;;;6.53;100.00;93667.44;2101334;28;20020;-83
2022/05/09 01:45:45;;;;;;;7.10;6.40;;;;;;;6.52;100.00;93665.94;2097787;28;20385;-81
2022/05/09 01:49:29;;;;;;;7.23;6.10;;;;;;;6.42;100.00;93668.56;2114485;28;20348;-82
2022/05/09 01:50:30;;;;;;;6.28;5.68;;;;;;;6.42;100.00;93668.56;2114157;28;20031;-81
2022/05/09 01:51:32;;;;;;;6.35;5.85;;;;;;;6.43;100.00;93670.09;2097777;28;20036;-83
2022/05/09 01:52:33;;;;;;;8.77;6.50;;;;;;;6.43;100.00;93673.50;2089649;28;20047;-83
2022/05/09 01:53:35;;;;;;;7.13;6.32;;;;;;;6.38;100.00;93668.56;2097816;28;20025;-80
2022/05/09 01:54:39;;;;;;;7.07;6.45;;;;;;;6.30;100.00;93678.38;2097755;28;20115;-82
2022/05/09 01:55:41;;;;;;;6.63;6.13;;;;;;;6.28;100.00;93674.59;2098695;28;20580;-82
2022/05/09 01:56:42;;;;;;;6.65;6.05;;;;;;;6.29;100.00;93674.22;2105946;28;20547;-80
2022/05/09 01:57:43;;;;;;;7.00;6.40;;;;;;;6.29;100.00;93676.13;2107226;28;20812;-83
2022/05/09 01:58:44;;;;;;;6.82;6.22;;;;;;;6.24;100.00;93676.47;2106160;28;20027;-82
2022/05/09 01:59:45;;;;;;;6.57;5.97;;;;;;;6.38;100.00;93683.72;2097719;28;20081;-82
2022/05/09 02:00:59;;;;;;;7.35;6.75;;;;;;;6.28;100.00;93675.34;2101773;28;20032;-82
2022/05/09 02:02:07;;;;;;;6.97;6.38;;;;;;;6.29;100.00;93676.88;2098724;28;20558;-81
2022/05/09 02:03:08;;;;;;;7.28;6.47;;;;;;;6.13;100.00;93675.66;2091506;28;20044;-81
2022/05/09 02:04:11;;;;;;;6.93;6.25;;;;;;;6.14;100.00;93679.84;2098400;28;20044;-82
2022/05/09 02:05:12;;;;;;;9.48;6.82;;;;;;;6.14;100.00;93683.25;2106297;28;20561;-82
2022/05/09 02:06:14;;;;;;;6.75;5.95;;;;;;;6.16;100.00;93675.69;2097581;28;20020;-82
2022/05/09 02:07:18;;;;;;;6.65;6.07;;;;;;;6.11;100.00;93684.00;2098230;28;20020;-82
2022/05/09 02:08:19;;;;;;;6.90;6.25;;;;;;;6.02;100.00;93676.38;2106390;28;20067;-80
2022/05/09 02:09:20;;;;;;;7.30;6.60;;;;;;;6.02;100.00;93678.28;2105896;28;20035;-81
2022/05/09 02:10:21;;;;;;;12.38;6.80;;;;;;;5.95;100.00;93679.00;2114461;28;20030;-82
2022/05/09 02:13:07;;;;;;;;;;;;;;;6.02;100.00;93683.59;2148720;27;20112;-81
2022/05/09 02:14:09;;;;;;;6.60;6.00;;;;;;;6.00;100.00;93677.88;2129293;27;20377;-80
2022/05/09 02:15:10;;;;;;;8.00;6.90;;;;;;;5.93;100.00;93683.16;2113206;27;20019;-80
2022/05/09 02:16:11;;;;;;;7.80;6.38;;;;;;;5.93;100.00;93683.94;2121785;27;20439;-81
2022/05/09 02:17:13;;;;;;;6.28;5.78;;;;;;;5.98;100.00;93680.91;2121719;27;20464;-79
2022/05/09 02:18:14;;;;;;;6.32;5.72;;;;;;;6.04;100.00;93682.06;2113480;28;20020;-82
2022/05/09 02:19:15;;;;;;;7.45;6.72;;;;;;;6.01;100.00;93682.03;2107173;28;20090;-81
2022/05/09 02:20:16;;;;;;;6.75;6.15;;;;;;;5.91;100.00;93675.53;2118451;27;20024;-79
2022/05/09 02:21:19;;;;;;;7.53;6.82;;;;;;;5.84;100.00;93683.47;2138945;27;20529;-81
2022/05/09 02:22:20;;;;;;;7.45;6.65;;;;;;;5.91;100.00;93682.75;2130243;27;20023;-79
2022/05/09 02:23:21;;;;;;;7.13;6.43;;;;;;;5.91;100.00;93680.09;2113248;28;20552;-81
2022/05/09 02:24:22;;;;;;;7.68;6.75;;;;;;;5.88;100.00;93680.81;2121688;27;20114;-82
2022/05/09 02:25:26;;;;;;;7.28;6.68;;;;;;;5.86;100.00;93683.84;2121715;27;20070;-80
2022/05/09 02:26:28;;;;;;;7.70;6.53;;;;;;;5.87;100.00;93680.06;2138222;27;20029;-80
2022/05/09 02:27:29;;;;;;;7.40;6.80;;;;;;;5.84;100.00;93678.16;2130374;27;20030;-81
2022/05/09 02:28:30;;;;;;;7.15;6.45;;;;;;;5.85;100.00;93677.03;2130372;27;20023;-81
2022/05/09 02:29:32;;;;;;;7.30;6.70;;;;;;;5.98;100.00;93683.56;2121699;27;20022;-80
2022/05/09 02:30:33;;;;;;;6.65;6.15;;;;;;;5.96;100.00;93677.09;2113297;27;20125;-80
2022/05/09 02:31:34;;;;;;;7.13;6.53;;;;;;;5.89;100.00;93680.47;2121207;27;20411;-79
2022/05/09 02:32:35;;;;;;;7.22;6.53;;;;;;;5.80;100.00;93680.78;2121261;27;20039;-81
2022/05/09 02:33:36;;;;;;;7.20;6.50;;;;;;;5.79;100.00;93675.84;2121660;28;20457;-80
2022/05/09 02:34:38;;;;;;;7.05;6.35;;;;;;;5.72;100.00;93673.94;2121677;27;20026;-80
2022/05/09 02:35:40;;;;;;;6.72;6.10;;;;;;;5.76;100.00;93676.59;2113124;28;20043;-81
2022/05/09 02:36:42;;;;;;;7.10;6.50;;;;;;;5.76;100.00;93674.72;2113500;27;20024;-80
2022/05/09 02:37:43;;;;;;;7.65;6.95;;;;;;;5.69;100.00;93679.97;2121061;27;20024;-80
2022/05/09 02:38:44;;;;;;;6.75;6.15;;;;;;;5.72;100.00;93673.94;2121173;28;20708;-81
2022/05/09 02:39:46;;;;;;;8.18;7.20;;;;;;;5.68;100.00;93678.44;2104796;28;20065;-80
2022/05/09 02:40:47;;;;;;;7.20;6.60;;;;;;;5.78;100.00;93671.69;2114647;27;20114;-80
2022/05/09 02:41:53;;;;;;;7.63;6.97;;;;;;;5.77;100.00;93686.84;2121415;27;20023;-80
2022/05/09 02:42:58;;;;;;;7.00;6.40;;;;;;;5.78;100.00;93683.03;2131642;27;20081;-81
2022/05/09 02:43:59;;;;;;;8.93;6.70;;;;;;;5.72;100.00;93678.47;2130060;27;20731;-79
2022/05/09 02:45:02;;;;;;;7.22;6.47;;;;;;;5.82;100.00;93685.72;2121511;27;20024;-81
2022/05/09 02:46:03;;;;;;;7.43;6.72;;;;;;;5.89;100.00;93677.06;2122232;27;20035;-81
2022/05/09 02:47:05;;;;;;;8.05;7.00;;;;;;;5.82;100.00;93680.41;2121504;27;20064;-80
2022/05/09 02:48:07;;;;;;;6.97;6.38;;;;;;;5.78;100.00;93672.44;2130279;27;20655;-81
2022/05/09 02:49:08;;;;;;;6.97;6.47;;;;;;;5.72;100.00;93678.47;2126465;27;20918;-82
2022/05/09 02:50:11;;;;;;;7.07;6.47;;;;;;;5.69;100.00;93673.91;2129246;27;20467;-80
2022/05/09 02:51:13;;;;;;;8.70;7.38;;;;;;;5.62;100.00;93677.28;2113044;28;20534;-79
2022/05/09 02:52:14;;;;;;;6.43;5.93;;;;;;;5.59;100.00;93678.03;2113259;27;20115;-81
2022/05/09 02:53:15;;;;;;;7.43;6.63;;;;;;;5.59;100.00;93683.31;2112951;28;20546;-82
2022/05/09 02:54:16;;;;;;;7.43;6.72;;;;;;;5.54;100.00;93681.03;2104455;28;20035;-81
2022/05/09 02:55:18;;;;;;;7.55;6.78;;;;;;;5.53;100.00;93684.78;2104591;28;20024;-80
2022/05/09 02:56:19;;;;;;;6.90;6.30;;;;;;;5.66;100.00;93679.94;2113004;28;20031;-81
2022/05/09 02:57:20;;;;;;;7.28;6.63;;;;;;;5.59;100.00;93688.63;2114862;28;20026;-81
2022/05/09 02:58:22;;;;;;;7.75;7.05;;;;;;;5.48;100.00;93691.19;2112915;27;20023;-81
2022/05/09 02:59:23;;;;;;;7.95;7.03;;;;;;;5.48;100.00;93682.47;2112982;28;20024;-80
2022/05/09 03:00:27;;;;;;;7.38;6.70;;;;;;;5.47;100.00;93684.38;2112939;27;20425;-79
2022/05/09 03:01:27;;;;;;;6.93;6.32;;;;;;;5.44;100.00;93687.00;2112690;28;20546;-81
2022/05/09 03:02:28;;;;;;;6.95;6.28;;;;;;;5.41;100.00;93685.84;2112562;27;20157;-82
2022/05/09 03:04:49;;;;;;;7.57;6.88;;;;;;;5.53;100.00;93682.13;2118059;27;20483;-80
2022/05/09 03:05:50;;;;;;;6.82;6.28;;;;;;;5.51;100.00;93689.72;2127075;27;20062;-81
2022/05/09 03:06:51;;;;;;;7.28;6.68;;;;;;;5.50;100.00;93693.50;2121363;27;20645;-81
2022/05/09 03:07:52;;;;;;;9.73;6.38;;;;;;;5.49;100.00;93692.72;2106442;28;20020;-80
2022/05/09 03:08:53;;;;;;;7.20;6.47;;;;;;;5.46;100.00;93690.06;2104412;28;20039;-81
2022/05/09 03:09:54;;;;;;;9.15;6.20;;;;;;;5.49;100.00;93686.69;2121344;28;20020;-80
2022/05/09 03:10:55;;;;;;;7.75;7.05;;;;;;;5.43;100.00;93683.59;2112695;28;20027;-80
2022/05/09 03:11:56;;;;;;;6.75;6.15;;;;;;;5.35;100.00;93684.66;2098766;28;20031;-81
2022/05/09 03:13:01;;;;;;;7.72;6.93;;;;;;;5.45;100.00;93688.53;2104118;28;20093;-80
2022/05/09 03:14:03;;;;;;;7.28;6.60;;;;;;;5.48;100.00;93687.78;2104626;28;20020;-80
2022/05/09 03:15:05;;;;;;;8.30;7.50;;;;;;;5.38;100.00;93683.19;2113077;27;20020;-81
2022/05/09 03:16:07;;;;;;;7.88;6.68;;;;;;;5.34;100.00;93693.00;2121342;27;20022;-81
2022/05/09 03:17:08;;;;;;;7.10;6.50;;;;;;;5.31;100.00;93689.19;2121257;28;20020;-80
2022/05/09 03:18:10;;;;;;;7.05;6.45;;;;;;;5.34;100.00;93679.75;2104546;28;20169;-81
2022/05/09 03:19:11;;;;;;;7.57;6.88;;;;;;;5.25;100.00;93685.34;2112797;28;20023;-81
2022/05/09 03:20:12;;;;;;;7.32;6.68;;;;;;;5.25;100.00;93686.09;2113017;28;20047;-81
2022/05/09 03:21:13;;;;;;;6.97;6.38;;;;;;;5.40;100.00;93680.91;2112712;28;20026;-80
2022/05/09 03:22:14;;;;;;;6.72;6.20;;;;;;;5.56;100.00;93684.06;2109697;27;20563;-80
2022/05/09 03:23:15;;;;;;;6.82;6.22;;;;;;;5.44;100.00;93681.69;2120713;28;20028;-79
2022/05/09 03:24:17;;;;;;;7.07;6.38;;;;;;;5.28;100.00;93674.78;2110691;28;20031;-81
2022/05/09 03:25:19;;;;;;;7.22;6.63;;;;;;;5.25;100.00;93683.47;2112697;27;20823;-82
2022/05/09 03:26:20;;;;;;;7.50;6.88;;;;;;;5.28;100.00;93681.97;2107687;28;20035;-80
2022/05/09 03:27:21;;;;;;;7.65;6.95;;;;;;;5.58;100.00;93678.41;2104348;28;20055;-80
2022/05/09 03:28:24;;;;;;;7.65;6.93;;;;;;;5.27;100.00;93670.63;2108239;28;20024;-80
2022/05/09 03:29:26;;;;;;;8.15;7.35;;;;;;;5.23;100.00;93679.66;2110737;28;20546;-80
2022/05/09 03:30:28;;;;;;;9.20;6.82;;;;;;;5.21;100.00;93674.72;2118461;27;20027;-81
2022/05/09 03:31:30;;;;;;;7.53;6.68;;;;;;;5.14;100.00;93682.63;2101744;28;20111;-80
2022/05/09 03:32:31;;;;;;;8.55;7.75;;;;;;;5.08;100.00;93680.69;2098534;28;20033;-80
2022/05/09 03:33:32;;;;;;;8.13;7.32;;;;;;;5.15;100.00;93678.09;2106309;28;20027;-82
2022/05/09 03:34:33;;;;;;;7.72;7.03;;;;;;;5.05;100.00;93680.28;2098767;28;20024;-81
2022/05/09 03:35:35;;;;;;;9.38;8.20;;;;;;;5.12;100.00;93682.22;2098688;28;20071;-80
2022/05/09 03:36:36;;;;;;;7.78;7.07;;;;;;;5.27;100.00;93683.13;2094347;28;20479;-79
2022/05/09 03:37:37;;;;;;;8.05;7.30;;;;;;;5.11;100.00;93693.19;2098419;28;20032;-80
2022/05/09 03:38:38;;;;;;;7.57;6.88;;;;;;;5.07;100.00;93690.50;2098480;28;20443;-79
2022/05/09 03:39:39;;;;;;;7.80;7.10;;;;;;;5.12;100.00;93692.06;2106688;28;20020;-80
2022/05/09 03:40:40;;;;;;;8.43;7.28;;;;;;;5.13;100.00;93690.94;2103354;28;20054;-80
2022/05/09 03:41:41;;;;;;;7.57;6.88;;;;;;;5.02;100.00;93683.66;2106703;28;20468;-81
2022/05/09 03:42:49;;;;;;;7.93;7.28;;;;;;;5.15;100.00;93686.81;2106997;28;20391;-81
2022/05/09 03:43:51;;;;;;;7.78;6.95;;;;;;;5.01;100.00;93687.44;2108052;28;20514;-79
2022/05/09 03:44:51;;;;;;;8.73;7.20;;;;;;;4.98;100.00;93684.75;2115354;28;20026;-81
2022/05/09 03:45:53;;;;;;;7.18;6.57;;;;;;;5.01;100.00;93681.41;2115377;28;20023;-80
2022/05/09 03:46:54;;;;;;;7.13;6.53;;;;;;;5.06;100.00;93689.00;2104371;28;20054;-80
2022/05/09 03:47:55;;;;;;;7.57;6.85;;;;;;;5.02;100.00;93682.91;2105290;28;20024;-81
2022/05/09 03:48:56;;;;;;;8.80;6.80;;;;;;;5.01;100.00;93684.81;2104096;28;20028;-80
2022/05/09 03:49:57;;;;;;;7.45;6.40;;;;;;;5.02;100.00;93686.31;2098128;28;20076;-80
2022/05/09 03:50:58;;;;;;;7.00;6.30;;;;;;;5.01;100.00;93682.16;2098659;28;20515;-81
2022/05/09 03:51:59;;;;;;;7.03;6.43;;;;;;;4.96;100.00;93690.44;2098587;28;20074;-81
2022/05/09 03:53:00;;;;;;;7.30;6.70;;;;;;;5.00;100.00;93685.94;2090306;28;20021;-80
2022/05/09 03:54:01;;;;;;;8.07;7.22;;;;;;;4.96;100.00;93684.34;2106171;28;20016;-81
2022/05/09 03:55:04;;;;;;;7.63;6.93;;;;;;;4.85;100.00;93686.91;2098646;28;20557;-81
2022/05/09 03:56:07;;;;;;;9.45;7.80;;;;;;;4.82;100.00;93692.94;2107512;28;20111;-81
2022/05/09 03:57:08;;;;;;;8.85;6.78;;;;;;;4.95;100.00;93699.50;2115275;28;20485;-82
2022/05/09 03:58:09;;;;;;;8.50;6.50;;;;;;;5.01;100.00;93692.75;2123851;27;20027;-80
2022/05/09 03:59:10;;;;;;;7.55;6.75;;;;;;;5.03;100.00;93695.03;2123765;27;20026;-81
2022/05/09 04:00:11;;;;;;;7.97;7.22;;;;;;;4.98;100.00;93693.47;2106906;28;20031;-82
2022/05/09 04:01:12;;;;;;;7.75;6.60;;;;;;;5.11;100.00;93695.84;2098486;28;20024;-81
2022/05/09 04:02:13;;;;;;;6.80;6.22;;;;;;;5.08;100.00;93697.34;2097685;28;20024;-80
2022/05/09 04:03:20;;;;;;;7.18;6.47;;;;;;;5.14;100.00;93695.13;2098409;28;20159;-80
2022/05/09 04:04:21;;;;;;;9.10;7.10;;;;;;;5.02;100.00;93688.22;2099140;28;20429;-80
2022/05/09 04:05:22;;;;;;;7.43;6.72;;;;;;;5.02;100.00;93690.84;2104774;28;20040;-81
2022/05/09 04:06:23;;;;;;;7.43;6.75;;;;;;;5.09;100.00;93690.13;2106694;28;20020;-80
2022/05/09 04:07:24;;;;;;;7.47;6.78;;;;;;;5.24;100.00;93689.91;2098420;28;20021;-80
2022/05/09 04:08:25;;;;;;;7.55;6.65;;;;;;;5.23;100.00;93688.38;2096929;28;20417;-82
2022/05/09 04:09:26;;;;;;;7.35;6.68;;;;;;;5.15;100.00;93697.41;2098501;28;20021;-80
2022/05/09 04:10:30;;;;;;;7.47;6.78;;;;;;;5.09;100.00;93693.53;2098352;28;20491;-81
2022/05/09 04:11:32;;;;;;;7.45;6.70;;;;;;;5.07;100.00;93690.50;2122949;27;20676;-81
2022/05/09 04:12:33;;;;;;;7.25;6.55;;;;;;;4.96;100.00;93693.09;2114914;28;20051;-80
2022/05/09 04:13:34;;;;;;;7.03;6.43;;;;;;;5.05;100.00;93693.53;2114698;28;20411;-82
2022/05/09 04:17:15;;;;;;;6.78;6.20;;;;;;;5.01;100.00;93690.09;2115167;28;20035;-81
2022/05/09 04:18:17;;;;;;;7.10;6.50;;;;;;;5.01;100.00;93692.75;2112586;28;20614;-81
2022/05/09 04:19:20;;;;;;;6.90;5.68;;;;;;;5.10;100.00;93696.97;2093753;28;20028;-80
2022/05/09 04:20:23;;;;;;;7.47;6.80;;;;;;;5.18;100.00;93691.38;2095413;28;20757;-81
2022/05/09 04:21:24;;;;;;;7.03;6.38;;;;;;;5.21;100.00;93695.16;2098376;28;20024;-81
2022/05/09 04:22:25;;;;;;;8.52;6.72;;;;;;;5.14;100.00;93695.13;2096748;28;20036;-81
2022/05/09 04:23:26;;;;;;;7.47;6.78;;;;;;;5.18;100.00;93698.53;2087240;28;20040;-79
2022/05/09 04:24:27;;;;;;;7.00;6.40;;;;;;;5.26;100.00;93698.22;2086786;28;20028;-80
2022/05/09 04:25:31;;;;;;;7.68;6.93;;;;;;;5.19;100.00;93700.84;2091548;28;20024;-81
2022/05/09 04:26:32;;;;;;;7.90;7.10;;;;;;;5.22;100.00;93696.69;2106015;27;20031;-81
2022/05/09 04:27:33;;;;;;;7.40;6.78;;;;;;;5.19;100.00;93702.72;2113798;28;20027;-80
2022/05/09 04:28:34;;;;;;;9.40;7.07;;;;;;;5.21;100.00;93697.81;2105628;28;20054;-80
2022/05/09 04:29:35;;;;;;;6.85;6.15;;;;;;;5.28;100.00;93701.28;2105430;28;20031;-81
2022/05/09 04:30:38;;;;;;;7.53;6.82;;;;;;;5.24;100.00;93699.75;2108655;28;20024;-82
2022/05/09 04:31:39;;;;;;;9.23;7.05;;;;;;;5.14;100.00;93705.72;2101741;28;20034;-81
2022/05/09 04:32:40;;;;;;;7.78;7.07;;;;;;;5.15;100.00;93701.94;2096693;28;20024;-80
2022/05/09 04:33:42;;;;;;;7.90;7.20;;;;;;;5.20;100.00;93701.59;2097926;27;20056;-81
2022/05/09 04:34:43;;;;;;;7.78;7.07;;;;;;;5.16;100.00;93698.16;2108561;28;20043;-81
2022/05/09 04:35:45;;;;;;;7.40;6.70;;;;;;;5.25;100.00;93699.38;2100277;28;20776;-81
2022/05/09 04:36:46;;;;;;;7.65;6.82;;;;;;;5.25;100.00;93702.00;2096694;28;20665;-81
2022/05/09 04:37:48;;;;;;;7.85;7.13;;;;;;;5.39;100.00;93700.59;2096533;28;20050;-82
2022/05/09 04:38:51;;;;;;;7.32;6.72;;;;;;;5.26;100.00;93702.78;2109380;28;20023;-81
2022/05/09 04:39:54;;;;;;;7.55;6.85;;;;;;;5.18;100.00;93696.69;2112138;27;20657;-81
2022/05/09 04:40:56;;;;;;;7.88;6.78;;;;;;;5.29;100.00;93702.03;2101497;28;20032;-81
2022/05/09 04:41:57;;;;;;;7.90;7.22;;;;;;;5.36;100.00;93710.06;2097725;28;20016;-81
2022/05/09 04:42:59;;;;;;;8.45;7.70;;;;;;;5.41;100.00;93701.75;2104859;28;20028;-80
2022/05/09 04:44:03;;;;;;;7.78;6.95;;;;;;;5.47;100.00;93700.28;2105751;28;20028;-80
2022/05/09 04:45:04;;;;;;;10.75;8.55;;;;;;;5.41;100.00;93703.66;2114510;27;20049;-81
2022/05/09 04:46:06;;;;;;;10.27;9.27;;;;;;;5.38;100.00;93705.13;2105377;28;20051;-80
2022/05/09 04:47:07;;;;;;;9.65;8.35;;;;;;;5.43;100.00;93701.38;2097415;28;20020;-81
2022/05/09 04:48:08;;;;;;;9.40;8.52;;;;;;;5.54;100.00;93700.34;2114083;28;20387;-81
2022/05/09 04:49:09;;;;;;;8.85;8.10;;;;;;;5.58;100.00;93707.56;2113139;28;20031;-81
2022/05/09 04:50:13;;;;;;;10.07;9.02;;;;;;;5.53;100.00;93704.13;2104395;28;20028;-81
2022/05/09 04:51:15;;;;;;;11.35;10.07;;;;;;;5.60;100.00;93705.28;2100033;28;20020;-81
2022/05/09 04:52:16;;;;;;;10.82;9.73;;;;;;;5.53;100.00;93706.78;2102438;28;20024;-81
2022/05/09 04:53:17;;;;;;;9.63;8.82;;;;;;;5.56;100.00;93710.56;2113688;28;20474;-81
2022/05/09 04:54:18;;;;;;;10.38;9.45;;;;;;;5.60;100.00;93705.28;2093838;28;20051;-81
2022/05/09 04:55:20;;;;;;;10.23;9.20;;;;;;;5.63;100.00;93710.63;2091531;28;20089;-79
2022/05/09 04:56:21;;;;;;;10.70;9.60;;;;;;;5.72;100.00;93707.66;2099986;28;20029;-81
2022/05/09 04:57:22;;;;;;;11.18;10.07;;;;;;;5.71;100.00;93714.09;2099897;28;20025;-81
2022/05/09 04:58:23;;;;;;;11.52;10.23;;;;;;;5.70;100.00;93715.97;2096530;28;20048;-80
2022/05/09 04:59:24;;;;;;;10.75;9.75;;;;;;;5.71;100.00;93714.84;2107214;28;20399;-80
2022/05/09 05:00:26;;;;;;;10.15;9.25;;;;;;;5.73;100.00;93715.22;2105048;28;20039;-81
2022/05/09 05:01:28;;;;;;;10.57;9.60;;;;;;;5.78;100.00;93711.47;2088353;28;20108;-81
2022/05/09 05:02:29;;;;;;;10.77;9.45;;;;;;;5.75;100.00;93712.97;2103859;28;20785;-81
2022/05/09 05:03:30;;;;;;;10.45;9.55;;;;;;;5.82;100.00;93712.25;2101558;28;20031;-81
2022/05/09 05:04:31;;;;;;;11.43;10.25;;;;;;;5.84;100.00;93712.66;2100042;28;20046;-80